Data for 07/15/2013

Time Sea-Level Adjusted Pressure Absolute Pressure Temperature Relative Humidity Dew Point Precipitation   
(mb) (inHg) (mb) (inHg) (C) (F) (%) (C) (F) (mm) (in)
00:05 1022 30.18 851 25.13 19.5 67.1 52 9.4 49 0 0
00:10 1021 30.15 851 25.13 19.4 67 52 9.5 49.1 0 0
00:15 1021 30.15 851 25.13 19.3 66.8 52 9.4 48.9 0 0
00:20 1021 30.15 851 25.13 19.3 66.7 52 9.3 48.7 0 0
00:25 1021 30.15 851 25.13 19.2 66.5 52 9.3 48.8 0 0
00:30 1021 30.15 851 25.13 19.1 66.4 52 9.1 48.3 0 0
00:35 1021 30.15 851 25.13 19.5 67.1 50 8.9 48 0 0
00:40 1022 30.18 851 25.13 19.7 67.5 50 9.3 48.7 0 0
00:45 1022 30.18 851 25.13 19.5 67.1 53 9.7 49.4 0 0
00:50 1022 30.18 851 25.13 19.1 66.3 54 9.8 49.6 0 0
00:55 1022 30.18 851 25.13 18.8 65.9 55 9.6 49.4 0 0
01:00 1022 30.18 851 25.13 18.4 65.1 58 10.1 50.2 0 0
01:05 1022 30.18 851 25.13 18.7 65.7 50 8.1 46.7 0 0
01:10 1022 30.18 851 25.13 19 66.2 58 10.7 51.2 0 0
01:15 1022 30.18 851 25.13 18.3 65 55 9.4 48.9 0 0
01:20 1021 30.15 850 25.1 18.6 65.6 54 9.3 48.7 0 0
01:25 1021 30.15 850 25.1 18.7 65.7 53 9.1 48.3 0 0
01:30 1021 30.15 850 25.1 18.7 65.7 57 10 50.1 0 0
01:35 1021 30.15 850 25.1 18.2 64.8 56 9.5 49 0 0
01:40 1021 30.15 850 25.1 18.2 64.7 57 9.5 49.2 0 0
01:45 1021 30.15 850 25.1 17.9 64.3 56 9.1 48.4 0 0
01:50 1021 30.15 850 25.1 18.3 64.9 55 9.1 48.4 0 0
01:55 1021 30.15 850 25.1 18.3 64.9 55 9.3 48.8 0 0
02:00 1021 30.15 850 25.1 18.2 64.7 55 9.2 48.5 0 0
02:05 1021 30.15 850 25.1 18.1 64.5 56 9.2 48.5 0 0
02:10 1021 30.15 850 25.1 18 64.4 56 9.2 48.6 0 0
02:15 1021 30.15 850 25.1 17.8 64 56 9 48.3 0 0
02:20 1021 30.15 850 25.1 17.8 64 57 9.2 48.6 0 0
02:25 1021 30.15 850 25.1 17.6 63.7 56 9 48.1 0 0
02:30 1021 30.15 850 25.1 17.8 64 56 8.9 48 0 0
02:35 1021 30.15 850 25.1 17.8 64.1 55 8.9 48 0 0
02:40 1021 30.15 850 25.1 18 64.3 54 8.6 47.5 0 0
02:45 1021 30.15 850 25.1 18 64.4 54 8.7 47.6 0 0
02:50 1021 30.15 850 25.1 18 64.4 55 8.9 48 0 0
02:55 1021 30.15 850 25.1 17.6 63.7 57 9.1 48.4 0 0
03:00 1021 30.15 850 25.1 17.1 62.7 60 9.3 48.8 0 0
03:05 1021 30.15 850 25.1 17.1 62.7 56 8.2 46.8 0 0
03:10 1021 30.15 850 25.1 17.4 63.4 56 8.7 47.7 0 0
03:15 1021 30.15 850 25.1 17.3 63.2 57 8.8 47.8 0 0
03:20 1021 30.15 850 25.1 17.4 63.2 56 8.5 47.3 0 0
03:25 1021 30.15 850 25.1 17.5 63.6 55 8.5 47.2 0 0
03:30 1021 30.15 850 25.1 17.5 63.5 55 8.5 47.3 0 0
03:35 1021 30.15 850 25.1 17.5 63.5 55 8.5 47.3 0 0
03:40 1021 30.15 850 25.1 17.3 63.2 57 8.8 47.8 0 0
03:45 1021 30.15 850 25.1 16.7 62 60 8.9 47.9 0 0
03:50 1021 30.15 851 25.13 16.3 61.3 58 8 46.5 0 0
03:55 1021 30.15 850 25.1 16.8 62.3 55 7.8 46.1 0 0
04:00 1021 30.15 850 25.1 16.9 62.3 57 8.4 47.2 0 0
04:05 1021 30.15 850 25.1 16.1 60.9 60 8.5 47.2 0 0
04:10 1021 30.15 850 25.1 16.1 61 58 7.9 46.3 0 0
04:15 1021 30.15 850 25.1 15.8 60.5 62 8.8 47.8 0 0
04:20 1021 30.15 851 25.13 14.6 58.3 68 8.9 48.1 0 0
04:25 1021 30.15 851 25.13 14.2 57.5 68 8.3 46.9 0 0
04:30 1021 30.15 851 25.13 14.1 57.3 67 8.2 46.7 0 0
04:35 1021 30.15 851 25.13 13.7 56.6 71 8.6 47.4 0 0
04:40 1021 30.15 851 25.13 12.8 55 70 7.5 45.4 0 0
04:45 1022 30.18 851 25.13 12.1 53.8 71 6.9 44.5 0 0
04:50 1022 30.18 851 25.13 11.7 53.1 70 6.5 43.7 0 0
04:55 1022 30.18 851 25.13 11.4 52.6 72 6.5 43.7 0 0
05:00 1022 30.18 851 25.13 11 51.8 75 6.7 44.1 0 0
05:05 1022 30.18 851 25.13 11 51.8 73 6.3 43.3 0 0
05:10 1022 30.18 851 25.13 11.2 52.1 74 6.7 44.1 0 0
05:15 1022 30.18 851 25.13 10.7 51.3 73 6.1 43 0 0
05:20 1022 30.18 851 25.13 10.5 50.9 74 6 42.9 0 0
05:25 1022 30.18 851 25.13 9.9 49.7 78 6.3 43.3 0 0
05:30 1022 30.18 851 25.13 9.8 49.6 77 5.9 42.6 0 0
05:35 1022 30.18 851 25.13 11 51.8 69 5.6 42 0 0
05:40 1022 30.18 851 25.13 11.9 53.5 65 5.7 42.2 0 0
05:45 1022 30.18 851 25.13 12 53.5 69 6.5 43.7 0 0
05:50 1022 30.18 851 25.13 10.5 50.9 72 5.7 42.3 0 0
05:55 1022 30.18 851 25.13 9.9 49.7 77 6 42.7 0 0
06:00 1022 30.18 851 25.13 9.1 48.3 81 6 42.7 0 0
06:05 1022 30.18 851 25.13 8.8 47.9 81 5.8 42.5 0 0
06:10 1022 30.18 851 25.13 8.6 47.5 82 5.8 42.4 0 0
06:15 1022 30.18 851 25.13 8.9 47.9 82 5.9 42.7 0 0
06:20 1022 30.18 851 25.13 9 48.1 82 6.1 43 0 0
06:25 1022 30.18 851 25.13 9.1 48.3 82 6.2 43.1 0 0
06:30 1022 30.18 851 25.13 9.5 49.2 81 6.4 43.6 0 0
06:35 1022 30.18 851 25.13 9.7 49.5 81 6.6 43.9 0 0
06:40 1022 30.18 852 25.16 10 49.9 80 6.6 43.9 0 0
06:45 1022 30.18 852 25.16 10.6 51 77 6.8 44.3 0 0
06:50 1022 30.18 852 25.16 11.1 51.9 78 7.3 45.2 0 0
06:55 1022 30.18 851 25.13 11.7 53 73 6.9 44.5 0 0
07:00 1022 30.18 852 25.16 12.3 54.2 71 7.3 45.1 0 0
07:05 1022 30.18 851 25.13 12.6 54.7 69 7.2 44.9 0 0
07:10 1022 30.18 852 25.16 13.3 55.9 66 7.1 44.8 0 0
07:15 1022 30.18 852 25.16 13.9 57.1 66 7.7 45.8 0 0
07:20 1022 30.18 851 25.13 14.6 58.3 61 7.2 45 0 0
07:25 1022 30.18 851 25.13 14.9 58.9 63 8 46.4 0 0
07:30 1022 30.18 851 25.13 15.2 59.3 58 7 44.7 0 0
07:35 1022 30.18 851 25.13 15.6 60 59 7.6 45.7 0 0
07:40 1022 30.18 851 25.13 15.8 60.5 59 7.9 46.2 0 0
07:45 1022 30.18 851 25.13 16.1 61 61 8.6 47.5 0 0
07:50 1022 30.18 851 25.13 16.2 61.2 62 9.1 48.4 0 0
07:55 1022 30.18 851 25.13 16.5 61.7 61 8.9 48.1 0 0
08:00 1022 30.18 851 25.13 16.9 62.4 60 9.3 48.7 0 0
08:05 1022 30.18 851 25.13 17.4 63.3 58 9.2 48.6 0 0
08:10 1022 30.18 851 25.13 17.8 64 55 8.7 47.6 0 0
08:15 1022 30.18 851 25.13 18.2 64.7 54 8.9 48.1 0 0
08:20 1022 30.18 851 25.13 18.5 65.3 54 9.1 48.3 0 0
08:25 1022 30.18 851 25.13 18.9 66 54 9.4 48.9 0 0
08:30 1022 30.18 851 25.13 19 66.1 55 9.8 49.7 0 0
08:35 1022 30.18 851 25.13 19.2 66.5 52 9.1 48.4 0 0
08:40 1022 30.18 851 25.13 19.6 67.2 49 8.8 47.8 0 0
08:45 1022 30.18 851 25.13 19.8 67.7 50 9.4 48.9 0 0
08:50 1022 30.18 851 25.13 20.3 68.5 50 9.7 49.5 0 0
08:55 1022 30.18 851 25.13 21 69.8 43 8.3 46.9 0 0
09:00 1022 30.18 851 25.13 21.1 69.9 41 7.4 45.4 0 0
09:05 1022 30.18 851 25.13 21.1 70 40 7.1 44.7 0 0
09:10 1022 30.18 851 25.13 21.5 70.7 40 7.6 45.7 0 0
09:15 1022 30.18 851 25.13 21.4 70.6 40 7.4 45.3 0 0
09:20 1022 30.18 851 25.13 21.8 71.3 37 6.7 44 0 0
09:25 1022 30.18 851 25.13 22.2 71.9 38 7.2 45 0 0
09:30 1022 30.18 851 25.13 22.3 72.1 38 7.6 45.8 0 0
09:35 1022 30.18 851 25.13 22.4 72.2 35 6.4 43.5 0 0
09:40 1022 30.18 851 25.13 22.8 73 35 6.6 43.8 0 0
09:45 1022 30.18 851 25.13 23.1 73.7 34 6.7 44.1 0 0
09:50 1022 30.18 851 25.13 23.3 74 35 7.3 45.1 0 0
09:55 1022 30.18 851 25.13 23.1 73.7 36 7.6 45.7 0 0
10:00 1022 30.18 851 25.13 23.4 74.1 35 7.1 44.7 0 0
10:05 1022 30.18 851 25.13 23.4 74 34 6.7 44 0 0
10:10 1022 30.18 851 25.13 23.9 75 36 8.1 46.6 0 0
10:15 1022 30.18 851 25.13 24.5 76.1 32 7.2 44.9 0 0
10:20 1022 30.18 851 25.13 24.6 76.3 33 7.5 45.4 0 0
10:25 1022 30.18 851 25.13 24.1 75.3 35 7.8 46.1 0 0
10:30 1021 30.15 851 25.13 24.1 75.3 36 8.3 46.9 0 0
10:35 1021 30.15 851 25.13 24.4 76 31 6.6 43.8 0 0
10:40 1021 30.15 851 25.13 24.7 76.4 31 6.7 44.1 0 0
10:45 1021 30.15 851 25.13 24.6 76.2 33 7.4 45.3 0 0
10:50 1021 30.15 850 25.1 24.8 76.6 32 7.3 45.1 0 0
10:55 1021 30.15 850 25.1 25.1 77.2 32 7.7 45.8 0 0
11:00 1021 30.15 850 25.1 25.2 77.3 32 7.6 45.8 0 0
11:05 1021 30.15 850 25.1 25 77.1 34 8.4 47.1 0 0
11:10 1021 30.15 850 25.1 25.4 77.8 31 7.5 45.5 0 0
11:15 1021 30.15 850 25.1 25.5 77.9 30 6.9 44.4 0 0
11:20 1021 30.15 850 25.1 25.5 78 29 6.4 43.5 0 0
11:25 1021 30.15 850 25.1 25.9 78.5 29 6.7 44 0 0
11:30 1021 30.15 850 25.1 26 78.7 28 6.3 43.3 0 0
11:35 1021 30.15 850 25.1 26.2 79.2 29 7.3 45.1 0 0
11:40 1021 30.15 850 25.1 26.4 79.5 31 8.3 46.9 0 0
11:45 1021 30.15 850 25.1 26.5 79.7 28 7.1 44.7 0 0
11:50 1021 30.15 850 25.1 26.6 79.9 29 7.4 45.3 0 0
11:55 1021 30.15 850 25.1 26.8 80.2 28 7.1 44.8 0 0
12:00 1021 30.15 850 25.1 26.8 80.2 28 6.9 44.4 0 0
12:05 1021 30.15 850 25.1 26.9 80.5 26 6.2 43.1 0 0
12:10 1021 30.15 850 25.1 27.3 81.1 26 6.2 43.1 0 0
12:15 1021 30.15 850 25.1 27.4 81.3 23 4.5 40.2 0 0
12:20 1021 30.15 850 25.1 27.7 81.8 23 5.2 41.3 0 0
12:25 1021 30.15 850 25.1 27.8 82.1 24 5.8 42.4 0 0
12:30 1021 30.15 850 25.1 27.9 82.1 24 5.6 42.2 0 0
12:35 1021 30.15 850 25.1 28.1 82.6 23 5.3 41.5 0 0
12:40 1021 30.15 850 25.1 28.2 82.8 22 4.6 40.3 0 0
12:45 1020 30.12 850 25.1 28.2 82.8 19 2.4 36.2 0 0
12:50 1020 30.12 850 25.1 28.7 83.7 19 3.2 37.7 0 0
12:55 1020 30.12 849 25.07 29.6 85.2 18 3.3 37.9 0 0
13:00 1020 30.12 849 25.07 29.4 84.9 19 3.5 38.4 0 0
13:05 1020 30.12 849 25.07 29.6 85.2 18 2.9 37.2 0 0
13:10 1020 30.12 849 25.07 29.7 85.5 17 2.3 36.1 0 0
13:15 1020 30.12 849 25.07 29.8 85.7 16 2.1 35.8 0 0
13:20 1020 30.12 849 25.07 30 86 14 -0 32 0 0
13:25 1020 30.12 849 25.07 30.1 86.1 16 1.4 34.6 0 0
13:30 1020 30.12 849 25.07 30.4 86.7 14 0.4 32.8 0 0
13:35 1020 30.12 849 25.07 30.8 87.4 12 -1.3 29.7 0 0
13:40 1020 30.12 849 25.07 30.7 87.2 13 -1 30.2 0 0
13:45 1020 30.12 849 25.07 30.8 87.4 13 -0.2 31.6 0 0
13:50 1020 30.12 849 25.07 30.5 86.9 13 -0.3 31.5 0 0
13:55 1019 30.09 849 25.07 30.8 87.4 14 0.7 33.3 0 0
14:00 1019 30.09 849 25.07 31.1 87.9 16 2.8 37.1 0 0
14:05 1019 30.09 849 25.07 31 87.8 13 -0.5 31.1 0 0
14:10 1019 30.09 849 25.07 31.1 87.9 14 1.1 34 0 0
14:15 1019 30.09 848 25.04 31 87.9 13 -0.2 31.6 0 0
14:20 1019 30.09 848 25.04 31.2 88.2 15 1.5 34.6 0 0
14:25 1019 30.09 848 25.04 31.4 88.5 16 3 37.4 0 0
14:30 1019 30.09 848 25.04 31.1 87.9 21 6.8 44.3 0 0
14:35 1019 30.09 848 25.04 30.7 87.2 13 -0.1 31.8 0 0
14:40 1019 30.09 848 25.04 30.8 87.4 16 2.4 36.3 0 0
14:45 1019 30.09 848 25.04 31.3 88.3 15 1.7 35.1 0 0
14:50 1019 30.09 848 25.04 31.7 89 19 6 42.8 0 0
14:55 1019 30.09 848 25.04 31.3 88.4 21 6.7 44.1 0 0
15:00 1019 30.09 848 25.04 30.4 86.6 21 5.7 42.3 0 0
15:05 1019 30.09 848 25.04 30.5 86.9 19 4.9 40.8 0 0
15:10 1019 30.09 848 25.04 30.7 87.2 16 1.9 35.5 0 0
15:15 1019 30.09 848 25.04 30.4 86.8 16 1.8 35.3 0 0
15:20 1019 30.09 848 25.04 30 86 21 5.6 42.1 0 0
15:25 1019 30.09 848 25.04 29.4 84.9 27 8.5 47.3 0 0
15:30 1019 30.09 848 25.04 29 84.2 24 6.7 44.1 0 0
15:35 1019 30.09 848 25.04 29.5 85.1 17 2.1 35.7 0 0
15:40 1019 30.09 848 25.04 29.9 85.7 14 0.3 32.5 0 0
15:45 1019 30.09 848 25.04 29.7 85.5 22 5.9 42.7 0 0
15:50 1019 30.09 848 25.04 28.8 83.9 26 7.6 45.7 0 0
15:55 1019 30.09 848 25.04 27.6 81.6 30 8.9 48 0 0
16:00 1019 30.09 848 25.04 26.6 80 29 7.4 45.3 0 0
16:05 1019 30.09 848 25.04 26.5 79.8 36 10.5 50.9 0 0
16:10 1019 30.09 848 25.04 26.9 80.4 34 9.9 49.8 0 0
16:15 1019 30.09 848 25.04 27.2 80.9 32 9.5 49.1 0 0
16:20 1019 30.09 848 25.04 27.4 81.2 34 10.2 50.3 0 0
16:25 1019 30.09 848 25.04 27.6 81.6 34 10.8 51.4 0 0
16:30 1019 30.09 848 25.04 28 82.4 28 8.3 47 0 0
16:35 1019 30.09 848 25.04 29 84.1 27 8.4 47.1 0 0
16:40 1019 30.09 848 25.04 29.1 84.4 25 7.4 45.3 0 0
16:45 1019 30.09 848 25.04 28.1 82.7 29 8.8 47.8 0 0
16:50 1019 30.09 848 25.04 27.3 81.1 25 6 42.9 0 0
16:55 1019 30.09 848 25.04 26.6 80 27 6.6 43.9 0 0
17:00 1019 30.09 848 25.04 25.7 78.3 25 4.6 40.2 0 0
17:05 1019 30.09 848 25.04 26.2 79.1 21 2.5 36.4 0 0
17:10 1019 30.09 848 25.04 26.9 80.4 16 -0.6 30.9 0 0
17:15 1019 30.09 848 25.04 28 82.5 16 0.6 33 0 0
17:20 1019 30.09 848 25.04 28.3 83 15 -0.5 31.2 0 0
17:25 1019 30.09 848 25.04 28.6 83.6 18 2 35.6 0 0
17:30 1018 30.06 848 25.04 29.1 84.4 21 4.6 40.3 0 0
17:35 1018 30.06 848 25.04 28.3 82.9 23 5.6 42.1 0 0
17:40 1018 30.06 848 25.04 28.2 82.8 25 6.8 44.2 0 0
17:45 1018 30.06 847 25.01 28.8 83.8 23 5.8 42.5 0 0
17:50 1018 30.06 847 25.01 29.5 85 24 7.2 45 0 0
17:55 1018 30.06 847 25.01 29.8 85.6 23 6.4 43.6 0 0
18:00 1018 30.06 847 25.01 29.9 85.8 23 6.9 44.4 0 0
18:05 1018 30.06 847 25.01 29.9 85.8 24 7.5 45.5 0 0
18:10 1018 30.06 847 25.01 29.9 85.8 21 5.8 42.5 0 0
18:15 1018 30.06 847 25.01 29.8 85.7 23 6.8 44.3 0 0
18:20 1018 30.06 847 25.01 29.7 85.5 23 6.6 43.9 0 0
18:25 1018 30.06 847 25.01 29.5 85.1 24 7.3 45.2 0 0
18:30 1018 30.06 847 25.01 28.2 82.7 26 7.4 45.4 0 0
18:35 1018 30.06 847 25.01 28.3 82.9 26 7.2 45 0 0
18:40 1018 30.06 847 25.01 29.2 84.5 24 7 44.6 0 0
18:45 1018 30.06 847 25.01 29.7 85.4 21 5.6 42 0 0
18:50 1018 30.06 847 25.01 30 85.9 24 7.4 45.4 0 0
18:55 1018 30.06 847 25.01 30 85.9 23 7 44.6 0 0
19:00 1018 30.06 847 25.01 29.9 85.9 23 6.7 44.1 0 0
19:05 1018 30.06 847 25.01 30 86.1 24 7.7 45.8 0 0
19:10 1018 30.06 847 25.01 30.2 86.4 24 7.5 45.6 0 0
19:15 1018 30.06 847 25.01 30.4 86.7 21 6.1 42.9 0 0
19:20 1018 30.06 847 25.01 30.5 86.9 19 4.8 40.6 0 0
19:25 1018 30.06 847 25.01 30.8 87.5 17 3.5 38.2 0 0
19:30 1018 30.06 847 25.01 30.9 87.7 21 6.3 43.3 0 0
19:35 1018 30.06 847 25.01 30.8 87.5 22 7.3 45.1 0 0
19:40 1018 30.06 847 25.01 30.5 86.9 26 9 48.3 0 0
19:45 1018 30.06 847 25.01 29.8 85.7 30 10.5 50.9 0 0
19:50 1018 30.06 847 25.01 29.2 84.6 30 10 50 0 0
19:55 1018 30.06 847 25.01 28.8 83.8 36 12.7 54.8 0 0
20:00 1018 30.06 847 25.01 27.5 81.6 37 11.6 53 0 0
20:05 1018 30.06 847 25.01 26.2 79.1 37 10.8 51.4 0 0
20:10 1018 30.06 847 25.01 25.3 77.6 44 12.4 54.3 0 0
20:15 1018 30.06 847 25.01 24.4 76 43 11.3 52.3 0 0
20:20 1018 30.06 847 25.01 23.4 74.1 43 10.2 50.3 0 0
20:25 1018 30.06 847 25.01 22.8 73.1 49 11.6 52.9 0 0
20:30 1018 30.06 847 25.01 21.8 71.2 53 12 53.5 0 0
20:35 1018 30.06 847 25.01 20.7 69.3 56 11.7 53 0 0
20:40 1018 30.06 847 25.01 20.2 68.3 58 11.7 53.1 0 0
20:45 1018 30.06 847 25.01 20.1 68.1 55 10.9 51.7 0 0
20:50 1018 30.06 847 25.01 20.1 68.2 58 11.8 53.2 0 0
20:55 1018 30.06 847 25.01 19.4 67 61 12 53.5 0 0
21:00 1018 30.06 848 25.04 19.9 67.7 38 5.2 41.4 0 0
21:05 1018 30.06 848 25.04 22.9 73.3 30 4.7 40.4 0 0
21:10 1018 30.06 848 25.04 24.6 76.3 34 7.9 46.2 0 0
21:15 1018 30.06 848 25.04 23.4 74.2 40 9.2 48.6 0 0
21:20 1019 30.09 848 25.04 21.5 70.7 44 9.1 48.3 0 0
21:25 1019 30.09 848 25.04 21.1 69.9 44 8.6 47.6 0 0
21:30 1019 30.09 848 25.04 21.1 70 42 7.7 45.9 0 0
21:35 1019 30.09 848 25.04 21.1 70.1 44 8.6 47.5 0 0
21:40 1019 30.09 848 25.04 21 69.7 38 6.3 43.3 0 0
21:45 1019 30.09 848 25.04 21.2 70.2 43 8.2 46.8 0 0
21:50 1019 30.09 848 25.04 21 69.8 34 4.6 40.3 0 0
21:55 1019 30.09 848 25.04 21.7 71.1 34 5.5 41.9 0 0
22:00 1019 30.09 848 25.04 21.9 71.5 41 8.1 46.6 0 0
22:05 1019 30.09 848 25.04 20.8 69.4 43 8 46.3 0 0
22:10 1019 30.09 849 25.07 20.3 68.5 36 4.9 40.8 0 0
22:15 1019 30.09 849 25.07 21.3 70.4 39 7 44.7 0 0
22:20 1019 30.09 849 25.07 20 68.1 44 7.5 45.5 0 0
22:25 1020 30.12 849 25.07 19.5 67.1 47 8.1 46.6 0 0
22:30 1020 30.12 849 25.07 18.5 65.2 53 8.9 48.1 0 0
22:35 1020 30.12 849 25.07 17.7 63.8 53 8 46.3 0 0
22:40 1020 30.12 849 25.07 17.9 64.1 46 6.1 43 0 0
22:45 1020 30.12 849 25.07 19.1 66.3 47 7.6 45.7 0 0
22:50 1020 30.12 849 25.07 18.4 65.1 47 6.9 44.5 0 0
22:55 1020 30.12 849 25.07 17.9 64.3 47 6.6 43.9 0 0
23:00 1020 30.12 849 25.07 18.4 65.2 41 5 41 0 0
23:05 1020 30.12 849 25.07 19.1 66.4 40 5.4 41.7 0 0
23:10 1020 30.12 849 25.07 18.8 65.9 45 6.8 44.3 0 0
23:15 1020 30.12 849 25.07 17.9 64.1 51 7.8 46 0 0
23:20 1020 30.12 849 25.07 17.1 62.8 45 5.4 41.6 0 0
23:25 1020 30.12 850 25.1 18.4 65.1 42 5.3 41.5 0 0
23:30 1020 30.12 850 25.1 19.2 66.5 37 4.5 40 0 0
23:35 1020 30.12 850 25.1 20 68 35 4.1 39.4 0 0
23:40 1021 30.15 850 25.1 20.5 68.9 38 6 42.7 0 0
23:45 1021 30.15 850 25.1 19.7 67.4 38 5.1 41.2 0 0
23:50 1021 30.15 850 25.1 19.9 67.8 35 4.1 39.4 0 0
23:55 1021 30.15 850 25.1 20.5 68.8 34 4.4 39.9 0 0
24:00 1021 30.15 850 25.1 20.3 68.6 32 3.2 37.7 0 0